Time;durP1;ratioP1;P1;durP2;ratioP2;P2;SDS_P1;SDS_P2;PMS_P1;PMS_P2;Temp;Humidity;BMP_temperature;BMP_pressure;BME280_temperature;BME280_humidity;BME280_pressure;Samples;Min_cycle;Max_cycle;Signal;HPM_P1;HPM_P2
2021/11/16 00:00:44;;;;;;;0.73;0.73;;;6.70;1.00;;;;;;5053768;28;20184;-65
2021/11/16 00:03:10;;;;;;;5.20;4.70;;;6.80;1.00;;;;;;5053546;28;20242;-65
2021/11/16 00:05:37;;;;;;;1.10;1.10;;;6.80;1.00;;;;;;5053569;28;20190;-66
2021/11/16 00:08:04;;;;;;;2.78;2.13;;;6.80;1.00;;;;;;5052979;28;20362;-65
2021/11/16 00:10:30;;;;;;;1.75;1.63;;;6.70;1.00;;;;;;5053687;28;20177;-66
2021/11/16 00:12:58;;;;;;;2.80;1.10;;;6.60;1.00;;;;;;5053354;28;20172;-63
2021/11/16 00:15:24;;;;;;;8.75;1.20;;;6.70;1.00;;;;;;5053105;28;20437;-65
2021/11/16 00:17:49;;;;;;;0.60;0.60;;;6.60;1.00;;;;;;5053259;28;20173;-65
2021/11/16 00:20:16;;;;;;;2.97;2.40;;;6.60;1.00;;;;;;5056810;28;20325;-67
2021/11/16 00:22:43;;;;;;;0.20;0.20;;;6.60;1.00;;;;;;5056834;28;20188;-65
2021/11/16 00:27:43;;;;;;;9.57;5.82;;;6.60;1.00;;;;;;5056459;28;20201;-63
2021/11/16 00:30:09;;;;;;;3.97;2.45;;;6.40;1.00;;;;;;5056571;28;20172;-67
2021/11/16 00:32:36;;;;;;;0.20;0.20;;;6.40;1.00;;;;;;5056515;28;20572;-67
2021/11/16 00:35:04;;;;;;;1.25;0.70;;;6.50;1.00;;;;;;5056684;28;20206;-68
2021/11/16 00:37:29;;;;;;;2.70;2.50;;;6.60;1.00;;;;;;5056442;28;20189;-64
2021/11/16 00:39:58;;;;;;;2.20;1.90;;;6.70;1.00;;;;;;5056399;28;20195;-63
2021/11/16 00:42:24;;;;;;;6.82;3.38;;;6.50;1.00;;;;;;5056520;28;20481;-63
2021/11/16 00:44:50;;;;;;;0.88;0.88;;;6.40;1.00;;;;;;5055601;28;20341;-63
2021/11/16 00:47:16;;;;;;;1.73;1.63;;;6.30;1.00;;;;;;5056249;28;20289;-67
2021/11/16 00:49:42;;;;;;;0.30;0.20;;;6.40;1.00;;;;;;5056217;28;20423;-65
2021/11/16 00:52:08;;;;;;;3.63;1.23;;;6.50;1.00;;;;;;5056531;28;20517;-65
2021/11/16 00:54:34;;;;;;;2.72;2.63;;;6.40;1.00;;;;;;5055365;28;20292;-65
2021/11/16 00:56:59;;;;;;;2.43;2.33;;;6.40;1.00;;;;;;5056212;28;20547;-65
2021/11/16 00:59:25;;;;;;;4.40;3.80;;;6.30;1.00;;;;;;5055147;28;20184;-63
2021/11/16 01:01:50;;;;;;;4.77;2.63;;;6.20;1.00;;;;;;5056258;28;20226;-62
2021/11/16 01:04:16;;;;;;;1.10;1.10;;;6.20;1.00;;;;;;5056246;28;20180;-63
2021/11/16 01:06:43;;;;;;;2.42;1.80;;;6.20;1.00;;;;;;5056207;28;20662;-67
2021/11/16 01:09:09;;;;;;;0.20;0.20;;;6.20;1.00;;;;;;5055957;28;20180;-63
2021/11/16 01:11:34;;;;;;;7.77;6.97;;;6.20;1.00;;;;;;5056009;28;20598;-63
2021/11/16 01:14:00;;;;;;;6.53;4.43;;;6.20;1.00;;;;;;5056264;28;20173;-63
2021/11/16 01:16:26;;;;;;;2.70;2.50;;;6.30;1.00;;;;;;5056315;28;20487;-65
2021/11/16 01:18:52;;;;;;;2.80;1.50;;;6.30;1.00;;;;;;5055526;28;20169;-65
2021/11/16 01:21:18;;;;;;;6.28;4.43;;;6.20;1.00;;;;;;5055818;28;20187;-67
2021/11/16 01:23:46;;;;;;;7.85;6.30;;;6.10;1.00;;;;;;5055720;28;20179;-65
2021/11/16 01:26:12;;;;;;;1.15;1.05;;;6.10;1.00;;;;;;5055677;28;20179;-65
2021/11/16 01:28:37;;;;;;;8.43;2.72;;;6.20;1.00;;;;;;5054935;28;20189;-65
2021/11/16 01:31:05;;;;;;;6.17;5.87;;;6.30;1.00;;;;;;5055347;28;20187;-65
2021/11/16 01:33:52;;;;;;;10.15;9.35;;;6.40;1.00;;;;;;5055699;28;20676;-66
2021/11/16 01:36:18;;;;;;;0.30;0.20;;;6.60;1.00;;;;;;5055643;28;20637;-65
2021/11/16 01:38:44;;;;;;;1.20;1.13;;;6.70;1.00;;;;;;5055407;28;20194;-66
2021/11/16 01:41:11;;;;;;;0.80;0.80;;;6.80;1.00;;;;;;5055378;28;20458;-66
2021/11/16 01:43:38;;;;;;;1.33;0.90;;;6.70;1.00;;;;;;5055681;28;20444;-64
2021/11/16 01:46:12;;;;;;;1.27;1.08;;;6.80;1.00;;;;;;5055542;28;20629;-67
2021/11/16 01:48:40;;;;;;;0.80;0.80;;;6.70;1.00;;;;;;5055127;28;20180;-66
2021/11/16 01:51:05;;;;;;;1.85;1.10;;;6.80;1.00;;;;;;5055345;28;20269;-67
2021/11/16 01:53:32;;;;;;;1.70;1.60;;;6.70;1.00;;;;;;5055299;28;20294;-64
2021/11/16 01:55:58;;;;;;;0.30;0.20;;;6.50;1.00;;;;;;5054217;28;20427;-65
2021/11/16 01:58:24;;;;;;;1.52;1.08;;;6.50;1.00;;;;;;5054958;28;20235;-66
2021/11/16 02:00:50;;;;;;;2.97;2.27;;;6.50;1.00;;;;;;5055125;28;20252;-64
2021/11/16 02:03:17;;;;;;;10.77;6.00;;;6.30;1.00;;;;;;5055190;28;20427;-66
2021/11/16 02:05:50;;;;;;;2.17;2.05;;;6.30;1.00;;;;;;5055187;28;20279;-65
2021/11/16 02:08:18;;;;;;;1.10;1.10;;;6.20;1.00;;;;;;5055123;28;20608;-69
2021/11/16 02:10:47;;;;;;;4.72;4.38;;;6.20;1.00;;;;;;5054906;28;20185;-67
2021/11/16 02:13:14;;;;;;;1.65;1.23;;;6.20;1.00;;;;;;5054800;28;20200;-67
2021/11/16 02:15:39;;;;;;;0.75;0.73;;;6.20;1.00;;;;;;5054936;28;20511;-69
2021/11/16 02:18:10;;;;;;;0.20;0.20;;;6.30;1.00;;;;;;5054393;28;20211;-67
2021/11/16 02:20:38;;;;;;;0.30;0.30;;;6.50;1.00;;;;;;5053882;28;20219;-64
2021/11/16 02:23:04;;;;;;;0.73;0.52;;;6.50;1.00;;;;;;5054643;28;20177;-68
2021/11/16 02:25:31;;;;;;;3.08;1.38;;;6.70;1.00;;;;;;5054598;28;20191;-66
2021/11/16 02:27:56;;;;;;;0.30;0.20;;;6.60;1.00;;;;;;5053429;28;20217;-67
2021/11/16 02:30:24;;;;;;;1.03;1.03;;;6.60;1.00;;;;;;5054457;28;20177;-66
2021/11/16 02:32:51;;;;;;;6.93;3.78;;;6.40;1.00;;;;;;5053543;28;20941;-68
2021/11/16 02:35:18;;;;;;;1.00;0.77;;;6.40;1.00;;;;;;5054466;28;20246;-68
2021/11/16 02:37:45;;;;;;;2.85;2.25;;;6.40;1.00;;;;;;5054204;28;20269;-68
2021/11/16 02:40:11;;;;;;;0.20;0.20;;;6.30;1.00;;;;;;5053802;28;20177;-68
2021/11/16 02:42:37;;;;;;;1.98;1.25;;;6.40;1.00;;;;;;5054327;28;20195;-66
2021/11/16 02:45:06;;;;;;;3.88;3.08;;;6.40;1.00;;;;;;5054298;28;20255;-68
2021/11/16 02:47:32;;;;;;;2.92;2.30;;;6.30;1.00;;;;;;5054218;28;20216;-64
2021/11/16 02:49:58;;;;;;;2.77;2.57;;;6.30;1.00;;;;;;5053883;28;20180;-66
2021/11/16 02:52:24;;;;;;;2.80;1.73;;;6.30;1.00;;;;;;5054070;28;20614;-67
2021/11/16 02:54:53;;;;;;;1.02;0.93;;;6.30;1.00;;;;;;5054097;28;20201;-66
2021/11/16 02:57:19;;;;;;;19.80;18.25;;;6.20;1.00;;;;;;5054339;28;20182;-63
2021/11/16 02:59:45;;;;;;;0.63;0.50;;;6.30;1.00;;;;;;5054117;28;20180;-66
2021/11/16 03:02:11;;;;;;;1.10;1.00;;;6.30;1.00;;;;;;5054447;28;20187;-66
2021/11/16 03:04:39;;;;;;;3.17;2.08;;;6.40;1.00;;;;;;5054237;28;20250;-66
2021/11/16 03:07:05;;;;;;;1.50;1.40;;;6.40;1.00;;;;;;5052906;28;20236;-66
2021/11/16 03:09:33;;;;;;;0.93;0.77;;;6.40;1.00;;;;;;5053650;28;20191;-66
2021/11/16 03:12:00;;;;;;;1.38;1.27;;;6.50;1.00;;;;;;5053776;28;20180;-65
2021/11/16 03:14:27;;;;;;;5.00;2.58;;;6.40;1.00;;;;;;5054040;28;20187;-65
2021/11/16 03:16:54;;;;;;;2.80;1.42;;;6.40;1.00;;;;;;5053825;28;20178;-65
2021/11/16 03:19:20;;;;;;;9.85;6.95;;;6.50;1.00;;;;;;5053602;28;20180;-65
2021/11/16 03:21:55;;;;;;;4.97;2.00;;;6.40;1.00;;;;;;5053811;28;20191;-65
2021/11/16 03:24:23;;;;;;;5.20;3.08;;;6.40;1.00;;;;;;5053662;28;20173;-65
2021/11/16 03:26:50;;;;;;;5.97;2.53;;;6.20;1.00;;;;;;5053438;28;20299;-65
2021/11/16 03:29:18;;;;;;;1.30;1.20;;;6.20;1.00;;;;;;5053342;28;20173;-65
2021/11/16 03:31:52;;;;;;;2.05;1.95;;;6.20;1.00;;;;;;5053598;28;20248;-65
2021/11/16 03:34:18;;;;;;;2.58;2.15;;;6.30;1.00;;;;;;5053698;28;20197;-65
2021/11/16 03:36:45;;;;;;;4.45;4.07;;;6.10;1.00;;;;;;5053496;28;20200;-65
2021/11/16 03:39:12;;;;;;;1.40;0.80;;;6.10;1.00;;;;;;5053414;28;20183;-65
2021/11/16 03:41:38;;;;;;;1.65;1.35;;;6.20;1.00;;;;;;5052778;28;20180;-65
2021/11/16 03:44:04;;;;;;;2.45;1.67;;;6.20;1.00;;;;;;5053483;28;20205;-65
2021/11/16 03:46:30;;;;;;;2.85;1.85;;;6.10;1.00;;;;;;5053527;28;20499;-65
2021/11/16 03:48:55;;;;;;;5.47;4.10;;;6.20;1.00;;;;;;5053119;28;20661;-65
2021/11/16 03:51:21;;;;;;;0.40;0.40;;;6.10;1.00;;;;;;5053457;28;20187;-65
2021/11/16 03:53:47;;;;;;;3.25;2.97;;;6.20;1.00;;;;;;5056116;28;20190;-67
2021/11/16 03:56:13;;;;;;;2.00;0.93;;;6.30;1.00;;;;;;5057500;28;20172;-66
2021/11/16 03:58:42;;;;;;;0.28;0.22;;;6.30;1.00;;;;;;5057128;28;20496;-66
2021/11/16 04:01:08;;;;;;;4.25;1.75;;;6.30;1.00;;;;;;5057317;28;20195;-66
2021/11/16 04:03:37;;;;;;;2.08;1.38;;;6.40;1.00;;;;;;5057291;28;20177;-66
2021/11/16 04:06:04;;;;;;;1.88;1.77;;;6.70;1.00;;;;;;5057325;28;20204;-64
2021/11/16 04:08:31;;;;;;;0.95;0.63;;;6.50;1.00;;;;;;5055951;28;20216;-63
2021/11/16 04:10:56;;;;;;;0.47;0.47;;;6.60;1.00;;;;;;5057073;28;20230;-63
2021/11/16 04:13:22;;;;;;;0.53;0.40;;;6.60;1.00;;;;;;5057091;28;20177;-63
2021/11/16 04:15:49;;;;;;;0.60;0.60;;;6.70;1.00;;;;;;5057243;28;20423;-63
2021/11/16 04:18:16;;;;;;;4.30;3.90;;;6.70;1.00;;;;;;5056102;28;20431;-65
2021/11/16 04:20:47;;;;;;;1.05;0.95;;;6.60;1.00;;;;;;5057038;28;20173;-65
2021/11/16 04:23:15;;;;;;;8.43;5.07;;;6.60;1.00;;;;;;5072677;28;20211;-65
2021/11/16 04:25:42;;;;;;;4.35;4.07;;;6.50;1.00;;;;;;5055803;28;20216;-65
2021/11/16 04:28:10;;;;;;;1.17;1.08;;;6.40;1.00;;;;;;5056772;28;20538;-65
2021/11/16 04:30:36;;;;;;;0.85;0.77;;;6.40;1.00;;;;;;5057237;28;20505;-65
2021/11/16 04:33:03;;;;;;;0.75;0.75;;;6.60;1.00;;;;;;5056598;28;20184;-65
2021/11/16 04:35:29;;;;;;;1.65;0.80;;;6.80;1.00;;;;;;5057186;28;20173;-65
2021/11/16 04:37:57;;;;;;;0.52;0.52;;;6.80;99.90;;;;;;5056856;28;20349;-65
2021/11/16 04:40:35;;;;;;;8.02;3.83;;;6.90;99.90;;;;;;5056513;28;20319;-65
2021/11/16 04:43:06;;;;;;;1.00;1.00;;;6.80;99.90;;;;;;5056663;28;20190;-65
2021/11/16 04:45:32;;;;;;;1.58;1.58;;;6.90;99.90;;;;;;5057059;28;20262;-65
2021/11/16 04:48:01;;;;;;;6.03;2.50;;;7.00;99.90;;;;;;5056083;28;20282;-65
2021/11/16 04:59:28;;;;;;;4.55;4.18;;;6.70;99.90;;;;;;5056481;28;20280;-65
2021/11/16 05:04:06;;;;;;;0.85;0.85;;;6.80;1.00;;;;;;5055912;28;20234;-66
2021/11/16 05:06:32;;;;;;;5.13;4.40;;;7.00;99.90;;;;;;5056138;28;20626;-67
2021/11/16 05:08:57;;;;;;;0.50;0.47;;;6.70;99.90;;;;;;5055981;28;20429;-67
2021/11/16 05:11:26;;;;;;;0.50;0.50;;;6.70;99.90;;;;;;5056289;28;20262;-66
2021/11/16 05:13:52;;;;;;;1.95;1.85;;;6.60;99.90;;;;;;5056547;28;20185;-65
2021/11/16 05:16:20;;;;;;;0.20;0.20;;;6.40;1.00;;;;;;5056051;28;20534;-65
2021/11/16 05:18:46;;;;;;;4.45;4.05;;;6.50;1.00;;;;;;5055669;28;20458;-65
2021/11/16 05:21:12;;;;;;;5.47;4.77;;;6.40;1.00;;;;;;5054829;28;20177;-65
2021/11/16 05:23:46;;;;;;;1.40;1.30;;;6.40;1.00;;;;;;5055724;28;20226;-65
2021/11/16 05:26:12;;;;;;;1.38;1.38;;;6.50;1.00;;;;;;5056040;28;20203;-66
2021/11/16 05:28:37;;;;;;;2.87;2.63;;;6.70;1.00;;;;;;5055940;28;20250;-66
2021/11/16 05:31:03;;;;;;;4.60;4.20;;;6.50;99.90;;;;;;5055551;28;20451;-65
2021/11/16 05:33:28;;;;;;;7.10;4.17;;;6.30;1.00;;;;;;5055637;28;20231;-65
2021/11/16 05:36:00;;;;;;;2.20;1.50;;;6.20;1.00;;;;;;5055322;28;20186;-67
2021/11/16 05:38:28;;;;;;;0.63;0.63;;;6.30;1.00;;;;;;5055395;28;20198;-67
2021/11/16 05:40:54;;;;;;;1.20;1.20;;;6.30;1.00;;;;;;5055317;28;20198;-67
2021/11/16 05:43:21;;;;;;;4.13;3.55;;;6.50;1.00;;;;;;5055502;28;20255;-65
2021/11/16 05:45:46;;;;;;;0.20;0.20;;;6.50;1.00;;;;;;5055319;28;20188;-65
2021/11/16 05:48:13;;;;;;;1.27;1.10;;;6.50;1.00;;;;;;5054959;28;20556;-65
2021/11/16 05:50:39;;;;;;;1.58;1.40;;;6.60;1.00;;;;;;5055040;28;20433;-65
2021/11/16 05:53:06;;;;;;;2.70;1.98;;;6.50;1.00;;;;;;5055086;28;20193;-66
2021/11/16 05:55:31;;;;;;;1.88;0.85;;;6.50;1.00;;;;;;5055156;28;20487;-65
2021/11/16 05:57:57;;;;;;;5.90;5.60;;;6.50;1.00;;;;;;5055030;28;20188;-65
2021/11/16 06:00:23;;;;;;;0.83;0.83;;;6.70;1.00;;;;;;5055138;28;20177;-66
2021/11/16 06:02:50;;;;;;;0.52;0.52;;;6.90;1.00;;;;;;5054924;28;20419;-66
2021/11/16 06:05:16;;;;;;;0.35;0.35;;;6.80;99.90;;;;;;5054801;28;20200;-66
2021/11/16 06:07:41;;;;;;;0.65;0.35;;;6.70;99.90;;;;;;5054716;28;20219;-66
2021/11/16 06:10:07;;;;;;;0.20;0.20;;;6.80;99.90;;;;;;5054841;28;20182;-65
2021/11/16 06:12:33;;;;;;;7.57;7.07;;;6.60;99.90;;;;;;5054729;28;20181;-65
2021/11/16 06:14:59;;;;;;;5.20;1.48;;;6.70;99.90;;;;;;5054306;28;20411;-65
2021/11/16 06:17:25;;;;;;;1.90;1.80;;;6.80;99.90;;;;;;5054370;28;20264;-65
2021/11/16 06:19:51;;;;;;;0.30;0.20;;;6.80;99.90;;;;;;5054323;28;20181;-65
2021/11/16 06:22:17;;;;;;;1.60;1.50;;;6.90;99.90;;;;;;5054517;28;20173;-65
2021/11/16 06:24:43;;;;;;;2.95;2.85;;;6.90;99.90;;;;;;5054698;28;20196;-66
2021/11/16 06:27:09;;;;;;;2.23;1.20;;;6.60;99.90;;;;;;5054797;28;20207;-66
2021/11/16 06:29:35;;;;;;;1.70;1.50;;;6.70;99.90;;;;;;5054700;28;20192;-66
2021/11/16 06:32:01;;;;;;;1.73;1.63;;;6.80;99.90;;;;;;5054486;28;20180;-66
2021/11/16 06:34:27;;;;;;;0.30;0.20;;;6.50;99.90;;;;;;5054216;28;20183;-66
2021/11/16 06:36:53;;;;;;;3.50;3.23;;;6.50;1.00;;;;;;5054187;28;20203;-67
2021/11/16 06:39:20;;;;;;;0.30;0.30;;;6.50;1.00;;;;;;5053859;28;20177;-66
2021/11/16 06:41:47;;;;;;;0.20;0.20;;;6.50;1.00;;;;;;5054024;28;20230;-66
2021/11/16 06:44:15;;;;;;;0.20;0.20;;;6.80;1.00;;;;;;5069770;28;20207;-66
2021/11/16 06:46:41;;;;;;;1.15;1.15;;;6.90;99.90;;;;;;5053836;28;20285;-67
2021/11/16 06:49:08;;;;;;;0.20;0.20;;;6.60;99.90;;;;;;5053571;28;20180;-66
2021/11/16 06:51:38;;;;;;;2.08;1.98;;;6.60;99.90;;;;;;5053697;28;20610;-67
2021/11/16 06:54:06;;;;;;;0.93;0.93;;;6.70;1.00;;;;;;5053763;28;20545;-66
2021/11/16 06:56:31;;;;;;;0.40;0.40;;;6.70;99.90;;;;;;5053783;28;20196;-66
2021/11/16 06:58:57;;;;;;;0.40;0.40;;;6.80;99.90;;;;;;5053522;28;20530;-66
2021/11/16 07:01:22;;;;;;;5.43;3.93;;;6.60;99.90;;;;;;5053540;28;20176;-66
2021/11/16 07:03:49;;;;;;;0.60;0.60;;;6.60;1.00;;;;;;5053652;28;20176;-66
2021/11/16 07:06:15;;;;;;;0.30;0.30;;;6.50;1.00;;;;;;5054007;28;20177;-66
2021/11/16 07:08:43;;;;;;;1.50;1.50;;;6.70;1.00;;;;;;5052536;28;20227;-66
2021/11/16 07:11:13;;;;;;;0.20;0.20;;;6.70;1.00;;;;;;5053719;28;20172;-66
2021/11/16 07:13:57;;;;;;;0.38;0.35;;;7.00;1.00;;;;;;5053764;28;20618;-67
2021/11/16 07:16:25;;;;;;;0.30;0.30;;;7.30;99.90;;;;;;5053489;28;20183;-68
2021/11/16 07:18:52;;;;;;;4.43;2.03;;;7.40;99.90;;;;;;5053379;28;20174;-69
2021/11/16 07:21:21;;;;;;;3.22;2.28;;;7.20;99.90;;;;;;5053725;28;20600;-69
2021/11/16 07:24:05;;;;;;;0.20;0.20;;;7.20;99.90;;;;;;5053582;28;20219;-68
2021/11/16 07:26:31;;;;;;;1.15;1.15;;;7.10;99.90;;;;;;5053032;28;20231;-68
2021/11/16 07:28:57;;;;;;;2.53;2.33;;;7.00;99.90;;;;;;5053140;28;20542;-69
2021/11/16 07:31:26;;;;;;;3.20;1.83;;;6.90;99.90;;;;;;5052175;28;20442;-69
2021/11/16 07:33:51;;;;;;;0.30;0.30;;;6.60;99.90;;;;;;5053420;28;20904;-68
2021/11/16 07:36:18;;;;;;;0.20;0.20;;;6.50;1.00;;;;;;5051972;28;20230;-68
2021/11/16 07:38:48;;;;;;;1.33;1.23;;;6.70;1.00;;;;;;5053134;28;20185;-68
2021/11/16 07:41:22;;;;;;;0.75;0.75;;;6.90;1.00;;;;;;5053274;28;20176;-69
2021/11/16 07:43:49;;;;;;;2.28;1.52;;;6.90;99.90;;;;;;5051381;28;20192;-69
2021/11/16 07:46:14;;;;;;;1.27;1.17;;;7.10;99.90;;;;;;5058266;28;20192;-67
2021/11/16 07:48:41;;;;;;;2.17;2.00;;;6.80;99.90;;;;;;5052755;28;20209;-68
2021/11/16 07:51:13;;;;;;;0.20;0.20;;;6.80;1.00;;;;;;5053184;28;20190;-67
2021/11/16 07:53:44;;;;;;;4.22;3.67;;;6.90;1.00;;;;;;5068889;28;20199;-67
2021/11/16 07:56:17;;;;;;;1.20;1.10;;;6.70;1.00;;;;;;5073812;28;20305;-68
2021/11/16 07:58:57;;;;;;;3.90;3.65;;;6.70;1.00;;;;;;5072757;28;20340;-66
2021/11/16 08:04:38;;;;;;;4.35;3.42;;;6.80;1.00;;;;;;5073159;28;20192;-66
2021/11/16 08:07:25;;;;;;;3.13;2.95;;;6.90;1.00;;;;;;5054277;28;20295;-66
2021/11/16 08:09:56;;;;;;;2.15;2.05;;;6.80;1.00;;;;;;5052546;28;20212;-64
2021/11/16 08:12:38;;;;;;;2.67;1.15;;;6.50;1.00;;;;;;5052841;28;20188;-64
2021/11/16 08:15:10;;;;;;;2.78;1.85;;;6.30;1.00;;;;;;5053002;28;20172;-64
2021/11/16 08:17:37;;;;;;;0.90;0.90;;;6.30;1.00;;;;;;5055493;28;20189;-64
2021/11/16 08:20:15;;;;;;;8.63;5.18;;;6.50;1.00;;;;;;5071876;28;20217;-64
2021/11/16 08:22:42;;;;;;;0.88;0.88;;;6.40;1.00;;;;;;5073035;28;20194;-64
2021/11/16 08:25:09;;;;;;;0.30;0.20;;;6.50;1.00;;;;;;5073148;28;20172;-64
2021/11/16 08:27:38;;;;;;;5.00;3.45;;;6.50;1.00;;;;;;5073061;28;20361;-63
2021/11/16 08:30:10;;;;;;;1.27;0.70;;;6.50;1.00;;;;;;5071753;28;20205;-64
2021/11/16 08:32:39;;;;;;;0.77;0.77;;;6.70;1.00;;;;;;5072307;28;20180;-64
2021/11/16 08:35:14;;;;;;;5.82;5.43;;;6.80;1.00;;;;;;5073127;28;20495;-66
2021/11/16 08:37:41;;;;;;;5.57;3.85;;;6.60;1.00;;;;;;5073226;28;20184;-64
2021/11/16 08:40:09;;;;;;;3.08;1.70;;;6.60;1.00;;;;;;5066579;28;20183;-64
2021/11/16 08:42:42;;;;;;;0.20;0.20;;;6.60;1.00;;;;;;5056711;28;20313;-65
2021/11/16 08:45:17;;;;;;;3.60;1.05;;;6.50;1.00;;;;;;5056191;28;20182;-65
2021/11/16 08:47:53;;;;;;;5.28;2.05;;;6.60;1.00;;;;;;5056224;28;20200;-66
2021/11/16 08:50:32;;;;;;;1.88;1.67;;;6.60;1.00;;;;;;5055754;28;20691;-64
2021/11/16 08:53:00;;;;;;;0.30;0.30;;;6.60;1.00;;;;;;5069048;28;20282;-65
2021/11/16 08:55:29;;;;;;;2.95;2.75;;;6.80;1.00;;;;;;5077067;28;20226;-64
2021/11/16 08:57:57;;;;;;;2.15;0.55;;;6.60;1.00;;;;;;5076172;28;20295;-64
2021/11/16 09:00:34;;;;;;;0.95;0.73;;;6.60;1.00;;;;;;5076344;28;20176;-63
2021/11/16 09:03:08;;;;;;;0.28;0.20;;;6.60;1.00;;;;;;5055561;28;20194;-63
2021/11/16 09:05:41;;;;;;;1.20;1.20;;;6.70;1.00;;;;;;5056318;28;20251;-64
2021/11/16 09:08:12;;;;;;;0.75;0.75;;;6.80;1.00;;;;;;5055356;28;20200;-64
2021/11/16 09:10:42;;;;;;;3.42;3.33;;;6.90;1.00;;;;;;5056331;28;20267;-64
2021/11/16 09:13:10;;;;;;;12.90;4.55;;;6.80;1.00;;;;;;5056163;28;20169;-65
2021/11/16 09:15:41;;;;;;;1.17;1.08;;;6.70;1.00;;;;;;5056015;28;20623;-64
2021/11/16 09:18:21;;;;;;;1.67;1.58;;;6.60;1.00;;;;;;5055855;28;20597;-63
2021/11/16 09:21:08;;;;;;;1.50;1.40;;;6.60;1.00;;;;;;5056045;28;20191;-65
2021/11/16 09:23:38;;;;;;;2.05;1.80;;;6.70;1.00;;;;;;5056426;28;20251;-66
2021/11/16 09:28:54;;;;;;;1.88;1.83;;;6.70;1.00;;;;;;5056089;28;20217;-65
2021/11/16 09:31:23;;;;;;;0.57;0.57;;;6.80;1.00;;;;;;5055791;28;20239;-66
2021/11/16 09:33:50;;;;;;;5.07;4.78;;;6.90;1.00;;;;;;5056020;28;20274;-65
2021/11/16 09:36:36;;;;;;;0.95;0.95;;;7.00;1.00;;;;;;5055894;28;20176;-65
2021/11/16 09:39:12;;;;;;;1.30;1.30;;;6.70;1.00;;;;;;5070963;28;20234;-65
2021/11/16 09:41:44;;;;;;;0.77;0.77;;;6.70;1.00;;;;;;5055616;28;20179;-64
2021/11/16 09:44:15;;;;;;;0.20;0.10;;;6.80;1.00;;;;;;5056033;28;20192;-65
2021/11/16 09:46:51;;;;;;;5.18;2.90;;;6.70;1.00;;;;;;5055396;28;20192;-65
2021/11/16 09:49:24;;;;;;;0.82;0.82;;;6.50;1.00;;;;;;5055739;28;20180;-65
2021/11/16 09:52:00;;;;;;;6.95;2.67;;;6.70;1.00;;;;;;5054654;28;20197;-64
2021/11/16 09:54:26;;;;;;;6.50;4.50;;;6.70;1.00;;;;;;5055386;28;20200;-64
2021/11/16 09:57:14;;;;;;;0.23;0.20;;;6.60;1.00;;;;;;5055152;28;20181;-64
2021/11/16 09:59:42;;;;;;;1.90;1.48;;;6.30;1.00;;;;;;5055338;28;20426;-66
2021/11/16 10:02:15;;;;;;;4.47;4.35;;;6.40;1.00;;;;;;5055430;28;20188;-65
2021/11/16 10:04:46;;;;;;;7.40;4.18;;;6.50;6.90;;;;;;5055328;28;20220;-65
2021/11/16 10:07:13;;;;;;;2.00;1.92;;;6.50;1.00;;;;;;5055257;28;20244;-65
2021/11/16 10:09:41;;;;;;;0.70;0.68;;;6.50;7.00;;;;;;5053982;28;20188;-66
2021/11/16 10:12:08;;;;;;;0.30;0.30;;;6.60;25.60;;;;;;5055142;28;20177;-66
2021/11/16 10:14:34;;;;;;;1.25;1.05;;;6.70;19.70;;;;;;5053915;28;20189;-66
2021/11/16 10:16:59;;;;;;;0.23;0.20;;;6.60;1.00;;;;;;5055087;28;20634;-65
2021/11/16 10:19:25;;;;;;;0.60;0.60;;;6.70;3.60;;;;;;5054709;28;20691;-66
2021/11/16 10:21:51;;;;;;;1.33;1.33;;;6.90;1.00;;;;;;5054899;28;20647;-65
2021/11/16 10:24:21;;;;;;;4.97;3.23;;;7.00;1.00;;;;;;5054911;28;20424;-65
2021/11/16 10:26:47;;;;;;;6.18;2.42;;;6.90;1.00;;;;;;5053767;28;20177;-66
2021/11/16 10:29:17;;;;;;;10.57;9.77;;;6.70;1.00;;;;;;5054681;28;20187;-66
2021/11/16 10:31:44;;;;;;;0.20;0.20;;;6.60;1.00;;;;;;5054574;28;20423;-66
2021/11/16 10:34:10;;;;;;;3.85;3.55;;;6.80;1.00;;;;;;5054943;28;20246;-65
2021/11/16 10:36:35;;;;;;;1.70;1.65;;;6.80;1.00;;;;;;5054567;28;20184;-65
2021/11/16 10:39:02;;;;;;;2.97;2.83;;;6.80;1.00;;;;;;5054312;28;20177;-65
2021/11/16 10:41:33;;;;;;;0.20;0.20;;;6.60;1.00;;;;;;5054314;28;20165;-65
2021/11/16 10:44:11;;;;;;;0.20;0.20;;;6.70;1.00;;;;;;5054603;28;20250;-65
2021/11/16 10:46:42;;;;;;;0.40;0.40;;;7.00;1.00;;;;;;5053777;28;20599;-65
2021/11/16 10:49:12;;;;;;;0.20;0.20;;;7.10;1.00;;;;;;5053060;28;20186;-66
2021/11/16 10:51:40;;;;;;;0.75;0.75;;;7.10;1.00;;;;;;5055710;28;20285;-66
2021/11/16 10:54:07;;;;;;;0.20;0.20;;;7.20;1.00;;;;;;5074195;28;20199;-67
2021/11/16 10:56:35;;;;;;;1.30;1.20;;;7.40;1.00;;;;;;5074821;28;20172;-66
2021/11/16 10:59:16;;;;;;;3.08;1.42;;;7.40;1.00;;;;;;5074164;28;20214;-66
2021/11/16 11:02:15;;;;;;;0.20;0.20;;;7.20;1.00;;;;;;5074069;28;20522;-67
2021/11/16 11:04:41;;;;;;;0.88;0.57;;;7.30;1.00;;;;;;5074585;28;20180;-67
2021/11/16 11:07:13;;;;;;;0.97;0.97;;;7.10;1.00;;;;;;5074236;28;20215;-65
2021/11/16 11:09:39;;;;;;;0.20;0.20;;;7.10;1.00;;;;;;5074007;28;20863;-65
2021/11/16 11:12:24;;;;;;;0.20;0.20;;;7.10;1.00;;;;;;5074276;28;20190;-65
2021/11/16 11:14:54;;;;;;;0.20;0.20;;;7.50;1.00;;;;;;5073035;28;20182;-65
2021/11/16 11:17:38;;;;;;;4.47;3.35;;;7.60;1.00;;;;;;5074073;28;20188;-65
2021/11/16 11:20:12;;;;;;;0.77;0.77;;;7.20;1.00;;;;;;5074026;28;20184;-64
2021/11/16 11:22:41;;;;;;;2.90;2.80;;;7.10;1.00;;;;;;5073937;28;20188;-65
2021/11/16 11:25:18;;;;;;;0.20;0.20;;;6.80;1.00;;;;;;5073917;28;20181;-66
2021/11/16 11:28:02;;;;;;;0.77;0.77;;;6.90;1.00;;;;;;5074027;28;20253;-65
2021/11/16 11:30:31;;;;;;;2.05;1.90;;;7.10;16.00;;;;;;5073786;28;20175;-65
2021/11/16 11:32:57;;;;;;;0.30;0.20;;;6.90;12.30;;;;;;5073883;28;20183;-65
2021/11/16 11:35:25;;;;;;;0.75;0.75;;;7.10;7.40;;;;;;5073903;28;20180;-64
2021/11/16 11:37:59;;;;;;;3.58;3.28;;;7.10;4.40;;;;;;5072929;28;20251;-67
2021/11/16 11:40:25;;;;;;;0.50;0.50;;;7.00;1.00;;;;;;5061096;28;20191;-66
2021/11/16 11:42:56;;;;;;;2.40;2.20;;;7.20;1.00;;;;;;5053611;28;20606;-66
2021/11/16 11:45:24;;;;;;;6.03;4.90;;;7.20;1.00;;;;;;5053855;28;20323;-66
2021/11/16 11:48:05;;;;;;;0.70;0.70;;;7.00;1.00;;;;;;5053639;28;20223;-69
2021/11/16 11:50:39;;;;;;;6.95;6.20;;;7.00;1.00;;;;;;5053482;28;20180;-67
2021/11/16 11:53:14;;;;;;;0.25;0.20;;;7.10;3.00;;;;;;5066980;28;20528;-70
2021/11/16 11:55:46;;;;;;;1.27;0.85;;;7.30;7.10;;;;;;5073949;28;20178;-69
2021/11/16 11:58:15;;;;;;;1.85;1.77;;;7.30;1.00;;;;;;5073863;28;20183;-70
2021/11/16 12:00:42;;;;;;;0.82;0.82;;;7.30;1.00;;;;;;5055871;28;20180;-69
2021/11/16 12:03:09;;;;;;;1.13;1.08;;;7.20;1.00;;;;;;5073297;28;20184;-69
2021/11/16 12:05:37;;;;;;;1.15;1.15;;;7.40;1.00;;;;;;5072518;28;20178;-69
2021/11/16 12:08:04;;;;;;;0.20;0.20;;;7.20;1.00;;;;;;5072955;28;20293;-69
2021/11/16 12:10:32;;;;;;;1.85;1.75;;;7.30;1.00;;;;;;5025584;28;20188;-69
2021/11/16 12:12:58;;;;;;;6.68;4.75;;;7.30;1.00;;;;;;5053154;28;20192;-68
2021/11/16 12:15:33;;;;;;;1.03;1.03;;;7.00;1.00;;;;;;5056820;28;20191;-68
2021/11/16 12:18:01;;;;;;;8.73;4.93;;;6.90;1.00;;;;;;5056950;28;20435;-68
2021/11/16 12:20:43;;;;;;;2.67;1.98;;;6.90;12.60;;;;;;5057162;28;20657;-68
2021/11/16 12:23:13;;;;;;;1.38;1.35;;;6.80;21.90;;;;;;5057131;28;20546;-66
2021/11/16 12:25:41;;;;;;;2.50;2.33;;;6.90;37.50;;;;;;5056884;28;20196;-67
2021/11/16 12:28:31;;;;;;;0.20;0.20;;;7.00;3.90;;;;;;5056821;28;20201;-65
2021/11/16 12:31:00;;;;;;;7.00;6.57;;;7.20;1.00;;;;;;5055803;28;20177;-67
2021/11/16 12:33:40;;;;;;;2.55;2.45;;;7.20;1.00;;;;;;5057067;28;20238;-65
2021/11/16 12:36:08;;;;;;;0.20;0.20;;;7.10;1.00;;;;;;5047950;28;20189;-68
2021/11/16 12:38:40;;;;;;;0.20;0.20;;;7.30;1.00;;;;;;5045078;28;20217;-70
2021/11/16 12:41:29;;;;;;;1.58;1.58;;;7.70;1.00;;;;;;5048306;28;20478;-71
2021/11/16 12:43:58;;;;;;;0.20;0.20;;;7.80;1.00;;;;;;5061060;28;20199;-68
2021/11/16 12:46:26;;;;;;;7.63;6.90;;;7.70;1.00;;;;;;5044932;28;20510;-68
2021/11/16 12:48:55;;;;;;;0.82;0.82;;;7.70;1.00;;;;;;5053939;28;20302;-67
2021/11/16 12:51:22;;;;;;;0.57;0.57;;;7.60;1.00;;;;;;5045033;28;20200;-67
2021/11/16 12:54:03;;;;;;;1.20;1.20;;;7.40;1.00;;;;;;5051227;28;20857;-68
2021/11/16 12:56:45;;;;;;;8.82;3.95;;;7.30;1.00;;;;;;5038943;28;20177;-66
2021/11/16 12:59:13;;;;;;;3.15;2.53;;;7.10;1.00;;;;;;5035124;28;20184;-66
2021/11/16 13:01:44;;;;;;;1.13;1.02;;;6.90;1.00;;;;;;5037115;28;20188;-67
2021/11/16 13:04:13;;;;;;;0.30;0.30;;;6.90;1.00;;;;;;5035569;28;20603;-66
2021/11/16 13:06:42;;;;;;;0.40;0.40;;;7.00;1.00;;;;;;5036634;28;20615;-66
2021/11/16 13:09:10;;;;;;;0.20;0.20;;;7.00;1.00;;;;;;5037239;28;20208;-67
2021/11/16 13:11:54;;;;;;;0.77;0.68;;;7.30;1.00;;;;;;5056273;28;20172;-66
2021/11/16 13:14:44;;;;;;;1.45;1.45;;;7.30;1.00;;;;;;5056168;28;20176;-67
2021/11/16 13:18:07;;;;;;;0.30;0.30;;;7.00;1.00;;;;;;5046630;28;20284;-66
2021/11/16 13:20:36;;;;;;;1.08;1.05;;;6.90;1.00;;;;;;5055167;28;20188;-67
2021/11/16 13:23:14;;;;;;;1.00;1.00;;;7.00;11.70;;;;;;5056341;28;20181;-67
2021/11/16 13:25:52;;;;;;;0.65;0.65;;;7.20;17.80;;;;;;5055674;28;20234;-68
2021/11/16 13:28:29;;;;;;;0.73;0.57;;;6.90;13.90;;;;;;5056132;28;20250;-68
2021/11/16 13:31:01;;;;;;;1.27;1.15;;;7.00;34.00;;;;;;5055364;28;20642;-67
2021/11/16 13:33:50;;;;;;;2.28;2.17;;;7.00;37.50;;;;;;5056127;28;20200;-66
2021/11/16 13:36:22;;;;;;;0.20;0.20;;;7.10;37.30;;;;;;5055020;28;20175;-65